sensor_id;sensor_type;location;lat;lon;timestamp;P1;durP1;ratioP1;P2;durP2;ratioP2
69551;SDS011;63774;45.292;11.784;2024-03-02T00:00:10;6.90;;;3.20;;
69551;SDS011;63774;45.292;11.784;2024-03-02T00:02:45;9.20;;;3.30;;
69551;SDS011;63774;45.292;11.784;2024-03-02T00:05:16;7.40;;;3.00;;
69551;SDS011;63774;45.292;11.784;2024-03-02T00:07:44;9.50;;;3.50;;
69551;SDS011;63774;45.292;11.784;2024-03-02T00:10:11;7.40;;;3.40;;
69551;SDS011;63774;45.292;11.784;2024-03-02T00:12:41;7.50;;;3.30;;
69551;SDS011;63774;45.292;11.784;2024-03-02T00:17:58;8.50;;;2.90;;
69551;SDS011;63774;45.292;11.784;2024-03-02T00:20:24;8.70;;;2.80;;
69551;SDS011;63774;45.292;11.784;2024-03-02T00:22:55;9.60;;;3.60;;
69551;SDS011;63774;45.292;11.784;2024-03-02T00:25:27;8.70;;;3.50;;
69551;SDS011;63774;45.292;11.784;2024-03-02T00:28:03;7.50;;;2.80;;
69551;SDS011;63774;45.292;11.784;2024-03-02T00:33:08;7.40;;;2.80;;
69551;SDS011;63774;45.292;11.784;2024-03-02T00:35:33;6.70;;;3.00;;
69551;SDS011;63774;45.292;11.784;2024-03-02T00:38:03;9.10;;;3.10;;
69551;SDS011;63774;45.292;11.784;2024-03-02T00:40:31;7.00;;;2.80;;
69551;SDS011;63774;45.292;11.784;2024-03-02T00:42:56;9.00;;;3.10;;
69551;SDS011;63774;45.292;11.784;2024-03-02T00:45:22;5.60;;;3.00;;
69551;SDS011;63774;45.292;11.784;2024-03-02T00:47:49;6.60;;;3.00;;
69551;SDS011;63774;45.292;11.784;2024-03-02T00:50:15;7.20;;;2.80;;
69551;SDS011;63774;45.292;11.784;2024-03-02T00:52:41;6.80;;;2.70;;
69551;SDS011;63774;45.292;11.784;2024-03-02T00:55:07;7.80;;;3.20;;
69551;SDS011;63774;45.292;11.784;2024-03-02T00:57:33;6.60;;;2.80;;
69551;SDS011;63774;45.292;11.784;2024-03-02T00:59:59;8.00;;;2.80;;
69551;SDS011;63774;45.292;11.784;2024-03-02T01:02:25;6.40;;;3.10;;
69551;SDS011;63774;45.292;11.784;2024-03-02T01:04:51;5.70;;;2.80;;
69551;SDS011;63774;45.292;11.784;2024-03-02T01:07:17;6.30;;;2.70;;
69551;SDS011;63774;45.292;11.784;2024-03-02T01:09:43;7.20;;;2.80;;
69551;SDS011;63774;45.292;11.784;2024-03-02T01:12:08;6.00;;;2.60;;
69551;SDS011;63774;45.292;11.784;2024-03-02T01:14:34;5.60;;;2.70;;
69551;SDS011;63774;45.292;11.784;2024-03-02T01:17:00;6.40;;;2.60;;
69551;SDS011;63774;45.292;11.784;2024-03-02T01:19:28;7.00;;;2.90;;
69551;SDS011;63774;45.292;11.784;2024-03-02T01:21:54;7.40;;;2.80;;
69551;SDS011;63774;45.292;11.784;2024-03-02T01:24:19;5.20;;;2.70;;
69551;SDS011;63774;45.292;11.784;2024-03-02T01:26:44;7.00;;;2.90;;
69551;SDS011;63774;45.292;11.784;2024-03-02T01:29:10;6.80;;;2.90;;
69551;SDS011;63774;45.292;11.784;2024-03-02T01:31:35;6.50;;;2.70;;
69551;SDS011;63774;45.292;11.784;2024-03-02T01:34:00;7.50;;;2.50;;
69551;SDS011;63774;45.292;11.784;2024-03-02T01:36:26;5.70;;;2.90;;
69551;SDS011;63774;45.292;11.784;2024-03-02T01:38:51;5.70;;;2.60;;
69551;SDS011;63774;45.292;11.784;2024-03-02T01:41:17;5.70;;;2.50;;
69551;SDS011;63774;45.292;11.784;2024-03-02T01:43:42;6.10;;;2.50;;
69551;SDS011;63774;45.292;11.784;2024-03-02T01:46:07;5.30;;;2.50;;
69551;SDS011;63774;45.292;11.784;2024-03-02T01:48:34;4.90;;;2.50;;
69551;SDS011;63774;45.292;11.784;2024-03-02T01:50:59;5.40;;;2.70;;
69551;SDS011;63774;45.292;11.784;2024-03-02T01:53:25;4.80;;;2.70;;
69551;SDS011;63774;45.292;11.784;2024-03-02T01:55:50;5.30;;;2.80;;
69551;SDS011;63774;45.292;11.784;2024-03-02T01:58:16;5.50;;;2.40;;
69551;SDS011;63774;45.292;11.784;2024-03-02T02:00:41;5.80;;;2.50;;
69551;SDS011;63774;45.292;11.784;2024-03-02T02:03:07;5.10;;;2.70;;
69551;SDS011;63774;45.292;11.784;2024-03-02T02:05:33;5.80;;;2.50;;
69551;SDS011;63774;45.292;11.784;2024-03-02T02:08:00;5.30;;;2.80;;
69551;SDS011;63774;45.292;11.784;2024-03-02T02:10:26;5.00;;;2.40;;
69551;SDS011;63774;45.292;11.784;2024-03-02T02:12:51;7.80;;;2.80;;
69551;SDS011;63774;45.292;11.784;2024-03-02T02:17:50;6.10;;;2.40;;
69551;SDS011;63774;45.292;11.784;2024-03-02T02:20:16;5.60;;;2.50;;
69551;SDS011;63774;45.292;11.784;2024-03-02T02:22:52;5.30;;;2.40;;
69551;SDS011;63774;45.292;11.784;2024-03-02T02:25:24;5.30;;;2.60;;
69551;SDS011;63774;45.292;11.784;2024-03-02T02:27:49;5.50;;;2.50;;
69551;SDS011;63774;45.292;11.784;2024-03-02T02:30:18;4.50;;;2.30;;
69551;SDS011;63774;45.292;11.784;2024-03-02T02:32:48;4.50;;;2.40;;
69551;SDS011;63774;45.292;11.784;2024-03-02T02:35:13;5.80;;;2.50;;
69551;SDS011;63774;45.292;11.784;2024-03-02T02:37:39;5.50;;;2.70;;
69551;SDS011;63774;45.292;11.784;2024-03-02T02:40:05;8.20;;;2.80;;
69551;SDS011;63774;45.292;11.784;2024-03-02T02:42:31;4.70;;;2.40;;
69551;SDS011;63774;45.292;11.784;2024-03-02T02:44:56;5.20;;;2.30;;
69551;SDS011;63774;45.292;11.784;2024-03-02T02:47:21;4.70;;;2.50;;
69551;SDS011;63774;45.292;11.784;2024-03-02T02:49:47;6.00;;;2.50;;
69551;SDS011;63774;45.292;11.784;2024-03-02T02:52:12;4.80;;;2.10;;
69551;SDS011;63774;45.292;11.784;2024-03-02T02:54:37;5.50;;;2.40;;
69551;SDS011;63774;45.292;11.784;2024-03-02T02:57:03;4.50;;;2.30;;
69551;SDS011;63774;45.292;11.784;2024-03-02T02:59:28;4.60;;;2.20;;
69551;SDS011;63774;45.292;11.784;2024-03-02T03:01:54;6.30;;;2.90;;
69551;SDS011;63774;45.292;11.784;2024-03-02T03:04:19;4.10;;;2.40;;
69551;SDS011;63774;45.292;11.784;2024-03-02T03:06:45;4.60;;;2.20;;
69551;SDS011;63774;45.292;11.784;2024-03-02T03:09:11;5.10;;;2.10;;
69551;SDS011;63774;45.292;11.784;2024-03-02T03:11:36;7.40;;;2.60;;
69551;SDS011;63774;45.292;11.784;2024-03-02T03:14:02;5.70;;;2.60;;
69551;SDS011;63774;45.292;11.784;2024-03-02T03:16:28;5.20;;;2.20;;
69551;SDS011;63774;45.292;11.784;2024-03-02T03:18:53;4.70;;;2.30;;
69551;SDS011;63774;45.292;11.784;2024-03-02T03:21:19;5.60;;;2.50;;
69551;SDS011;63774;45.292;11.784;2024-03-02T03:23:44;3.80;;;2.00;;
69551;SDS011;63774;45.292;11.784;2024-03-02T03:26:10;6.00;;;2.40;;
69551;SDS011;63774;45.292;11.784;2024-03-02T03:28:35;4.00;;;2.50;;
69551;SDS011;63774;45.292;11.784;2024-03-02T03:31:01;4.30;;;2.10;;
69551;SDS011;63774;45.292;11.784;2024-03-02T03:33:27;4.30;;;2.10;;
69551;SDS011;63774;45.292;11.784;2024-03-02T03:35:52;4.40;;;2.50;;
69551;SDS011;63774;45.292;11.784;2024-03-02T03:38:18;4.60;;;2.40;;
69551;SDS011;63774;45.292;11.784;2024-03-02T03:40:44;6.90;;;3.00;;
69551;SDS011;63774;45.292;11.784;2024-03-02T03:43:10;3.90;;;2.00;;
69551;SDS011;63774;45.292;11.784;2024-03-02T03:45:35;4.70;;;2.20;;
69551;SDS011;63774;45.292;11.784;2024-03-02T03:48:02;3.80;;;2.20;;
69551;SDS011;63774;45.292;11.784;2024-03-02T03:50:27;5.40;;;2.20;;
69551;SDS011;63774;45.292;11.784;2024-03-02T03:52:53;4.60;;;2.40;;
69551;SDS011;63774;45.292;11.784;2024-03-02T03:55:18;5.50;;;2.10;;
69551;SDS011;63774;45.292;11.784;2024-03-02T03:57:44;4.00;;;2.30;;
69551;SDS011;63774;45.292;11.784;2024-03-02T04:00:09;5.60;;;2.10;;
69551;SDS011;63774;45.292;11.784;2024-03-02T04:02:35;3.50;;;2.10;;
69551;SDS011;63774;45.292;11.784;2024-03-02T04:05:01;4.70;;;2.30;;
69551;SDS011;63774;45.292;11.784;2024-03-02T04:07:30;5.60;;;2.40;;
69551;SDS011;63774;45.292;11.784;2024-03-02T04:09:55;5.50;;;2.20;;
69551;SDS011;63774;45.292;11.784;2024-03-02T04:12:21;5.00;;;2.30;;
69551;SDS011;63774;45.292;11.784;2024-03-02T04:14:47;3.80;;;2.20;;
69551;SDS011;63774;45.292;11.784;2024-03-02T04:17:12;4.70;;;2.50;;
69551;SDS011;63774;45.292;11.784;2024-03-02T04:19:38;3.90;;;2.20;;
69551;SDS011;63774;45.292;11.784;2024-03-02T04:22:03;4.00;;;2.20;;
69551;SDS011;63774;45.292;11.784;2024-03-02T04:24:29;3.60;;;2.40;;
69551;SDS011;63774;45.292;11.784;2024-03-02T04:26:55;4.90;;;2.00;;
69551;SDS011;63774;45.292;11.784;2024-03-02T04:29:20;5.10;;;2.20;;
69551;SDS011;63774;45.292;11.784;2024-03-02T04:31:45;3.50;;;1.90;;
69551;SDS011;63774;45.292;11.784;2024-03-02T04:34:11;5.40;;;2.30;;
69551;SDS011;63774;45.292;11.784;2024-03-02T04:36:36;4.00;;;2.60;;
69551;SDS011;63774;45.292;11.784;2024-03-02T04:39:02;3.80;;;2.00;;
69551;SDS011;63774;45.292;11.784;2024-03-02T04:41:27;4.50;;;2.00;;
69551;SDS011;63774;45.292;11.784;2024-03-02T04:43:53;5.10;;;2.40;;
69551;SDS011;63774;45.292;11.784;2024-03-02T04:46:18;3.90;;;2.20;;
69551;SDS011;63774;45.292;11.784;2024-03-02T04:48:44;4.90;;;2.30;;
69551;SDS011;63774;45.292;11.784;2024-03-02T04:51:09;7.40;;;2.30;;
69551;SDS011;63774;45.292;11.784;2024-03-02T04:53:36;4.20;;;2.10;;
69551;SDS011;63774;45.292;11.784;2024-03-02T04:56:01;4.10;;;2.10;;
69551;SDS011;63774;45.292;11.784;2024-03-02T04:59:05;5.40;;;2.10;;
69551;SDS011;63774;45.292;11.784;2024-03-02T05:01:31;4.00;;;1.90;;
69551;SDS011;63774;45.292;11.784;2024-03-02T05:03:57;3.70;;;2.10;;
69551;SDS011;63774;45.292;11.784;2024-03-02T05:06:22;4.70;;;2.10;;
69551;SDS011;63774;45.292;11.784;2024-03-02T05:08:48;4.60;;;2.00;;
69551;SDS011;63774;45.292;11.784;2024-03-02T05:11:14;4.80;;;2.10;;
69551;SDS011;63774;45.292;11.784;2024-03-02T05:13:58;3.00;;;1.90;;
69551;SDS011;63774;45.292;11.784;2024-03-02T05:16:23;3.70;;;2.10;;
69551;SDS011;63774;45.292;11.784;2024-03-02T05:18:48;3.60;;;2.00;;
69551;SDS011;63774;45.292;11.784;2024-03-02T05:21:14;9.60;;;2.10;;
69551;SDS011;63774;45.292;11.784;2024-03-02T05:23:39;5.10;;;2.10;;
69551;SDS011;63774;45.292;11.784;2024-03-02T05:26:05;3.60;;;1.90;;
69551;SDS011;63774;45.292;11.784;2024-03-02T05:28:30;4.20;;;2.10;;
69551;SDS011;63774;45.292;11.784;2024-03-02T05:30:56;4.10;;;2.00;;
69551;SDS011;63774;45.292;11.784;2024-03-02T05:33:21;4.10;;;2.00;;
69551;SDS011;63774;45.292;11.784;2024-03-02T05:35:47;4.70;;;1.90;;
69551;SDS011;63774;45.292;11.784;2024-03-02T05:38:15;3.70;;;1.90;;
69551;SDS011;63774;45.292;11.784;2024-03-02T05:40:41;3.70;;;2.00;;
69551;SDS011;63774;45.292;11.784;2024-03-02T05:43:06;5.10;;;2.10;;
69551;SDS011;63774;45.292;11.784;2024-03-02T05:45:32;4.00;;;2.40;;
69551;SDS011;63774;45.292;11.784;2024-03-02T05:47:57;3.30;;;2.00;;
69551;SDS011;63774;45.292;11.784;2024-03-02T05:50:23;3.90;;;2.10;;
69551;SDS011;63774;45.292;11.784;2024-03-02T05:52:48;3.90;;;1.90;;
69551;SDS011;63774;45.292;11.784;2024-03-02T05:55:14;3.60;;;1.80;;
69551;SDS011;63774;45.292;11.784;2024-03-02T05:57:40;3.70;;;2.00;;
69551;SDS011;63774;45.292;11.784;2024-03-02T06:00:08;3.60;;;1.90;;
69551;SDS011;63774;45.292;11.784;2024-03-02T06:02:34;3.80;;;2.00;;
69551;SDS011;63774;45.292;11.784;2024-03-02T06:05:02;4.40;;;1.90;;
69551;SDS011;63774;45.292;11.784;2024-03-02T06:07:29;4.40;;;2.00;;
69551;SDS011;63774;45.292;11.784;2024-03-02T06:09:55;3.20;;;1.70;;
69551;SDS011;63774;45.292;11.784;2024-03-02T06:12:20;2.90;;;2.10;;
69551;SDS011;63774;45.292;11.784;2024-03-02T06:14:45;3.40;;;1.90;;
69551;SDS011;63774;45.292;11.784;2024-03-02T06:17:11;3.80;;;1.70;;
69551;SDS011;63774;45.292;11.784;2024-03-02T06:19:36;4.30;;;2.10;;
69551;SDS011;63774;45.292;11.784;2024-03-02T06:22:01;4.40;;;1.90;;
69551;SDS011;63774;45.292;11.784;2024-03-02T06:24:27;3.70;;;1.90;;
69551;SDS011;63774;45.292;11.784;2024-03-02T06:26:52;3.10;;;1.70;;
69551;SDS011;63774;45.292;11.784;2024-03-02T06:29:18;4.00;;;1.80;;
69551;SDS011;63774;45.292;11.784;2024-03-02T06:31:43;4.00;;;1.90;;
69551;SDS011;63774;45.292;11.784;2024-03-02T06:34:08;3.60;;;1.60;;
69551;SDS011;63774;45.292;11.784;2024-03-02T06:36:34;4.60;;;2.10;;
69551;SDS011;63774;45.292;11.784;2024-03-02T06:38:59;4.20;;;2.00;;
69551;SDS011;63774;45.292;11.784;2024-03-02T06:41:25;3.60;;;1.90;;
69551;SDS011;63774;45.292;11.784;2024-03-02T06:43:51;2.70;;;1.60;;
69551;SDS011;63774;45.292;11.784;2024-03-02T06:46:24;4.40;;;1.80;;
69551;SDS011;63774;45.292;11.784;2024-03-02T06:48:50;2.90;;;1.80;;
69551;SDS011;63774;45.292;11.784;2024-03-02T06:51:15;3.00;;;1.90;;
69551;SDS011;63774;45.292;11.784;2024-03-02T06:53:41;3.20;;;1.80;;
69551;SDS011;63774;45.292;11.784;2024-03-02T06:56:07;2.80;;;1.90;;
69551;SDS011;63774;45.292;11.784;2024-03-02T06:58:33;4.60;;;2.00;;
69551;SDS011;63774;45.292;11.784;2024-03-02T07:00:58;3.50;;;1.80;;
69551;SDS011;63774;45.292;11.784;2024-03-02T07:03:25;4.10;;;1.90;;
69551;SDS011;63774;45.292;11.784;2024-03-02T07:05:51;3.00;;;1.70;;
69551;SDS011;63774;45.292;11.784;2024-03-02T07:08:16;3.30;;;2.00;;
69551;SDS011;63774;45.292;11.784;2024-03-02T07:10:42;3.70;;;1.90;;
69551;SDS011;63774;45.292;11.784;2024-03-02T07:13:07;3.90;;;1.90;;
69551;SDS011;63774;45.292;11.784;2024-03-02T07:15:33;3.70;;;1.60;;
69551;SDS011;63774;45.292;11.784;2024-03-02T07:18:17;3.30;;;2.00;;
69551;SDS011;63774;45.292;11.784;2024-03-02T07:20:42;3.30;;;1.70;;
69551;SDS011;63774;45.292;11.784;2024-03-02T07:23:08;3.40;;;1.70;;
69551;SDS011;63774;45.292;11.784;2024-03-02T07:25:34;2.30;;;1.60;;
69551;SDS011;63774;45.292;11.784;2024-03-02T07:27:59;4.40;;;1.90;;
69551;SDS011;63774;45.292;11.784;2024-03-02T07:30:25;2.70;;;1.80;;
69551;SDS011;63774;45.292;11.784;2024-03-02T07:32:50;2.90;;;1.60;;
69551;SDS011;63774;45.292;11.784;2024-03-02T07:35:16;3.70;;;1.80;;
69551;SDS011;63774;45.292;11.784;2024-03-02T07:37:42;2.70;;;1.50;;
69551;SDS011;63774;45.292;11.784;2024-03-02T07:40:08;2.40;;;1.50;;
69551;SDS011;63774;45.292;11.784;2024-03-02T07:42:36;4.40;;;2.00;;
69551;SDS011;63774;45.292;11.784;2024-03-02T07:45:04;4.20;;;1.80;;
69551;SDS011;63774;45.292;11.784;2024-03-02T07:47:30;2.90;;;1.60;;
69551;SDS011;63774;45.292;11.784;2024-03-02T07:49:55;3.20;;;1.60;;
69551;SDS011;63774;45.292;11.784;2024-03-02T07:52:21;4.50;;;2.00;;
69551;SDS011;63774;45.292;11.784;2024-03-02T07:54:46;3.30;;;1.70;;
69551;SDS011;63774;45.292;11.784;2024-03-02T07:57:11;3.70;;;2.00;;
69551;SDS011;63774;45.292;11.784;2024-03-02T07:59:37;3.20;;;1.70;;
69551;SDS011;63774;45.292;11.784;2024-03-02T08:02:03;3.10;;;1.60;;
69551;SDS011;63774;45.292;11.784;2024-03-02T08:04:28;2.90;;;1.60;;
69551;SDS011;63774;45.292;11.784;2024-03-02T08:06:54;3.00;;;1.60;;
69551;SDS011;63774;45.292;11.784;2024-03-02T08:09:19;3.20;;;1.90;;
69551;SDS011;63774;45.292;11.784;2024-03-02T08:11:45;3.40;;;1.80;;
69551;SDS011;63774;45.292;11.784;2024-03-02T08:14:10;3.80;;;1.80;;
69551;SDS011;63774;45.292;11.784;2024-03-02T08:16:36;3.20;;;1.60;;
69551;SDS011;63774;45.292;11.784;2024-03-02T08:19:01;3.50;;;1.70;;
69551;SDS011;63774;45.292;11.784;2024-03-02T08:21:27;4.70;;;1.80;;
69551;SDS011;63774;45.292;11.784;2024-03-02T08:23:56;3.50;;;1.80;;
69551;SDS011;63774;45.292;11.784;2024-03-02T08:26:23;3.40;;;1.80;;
69551;SDS011;63774;45.292;11.784;2024-03-02T08:28:48;4.40;;;1.80;;
69551;SDS011;63774;45.292;11.784;2024-03-02T08:31:14;2.80;;;1.70;;
69551;SDS011;63774;45.292;11.784;2024-03-02T08:33:39;3.40;;;1.90;;
69551;SDS011;63774;45.292;11.784;2024-03-02T08:36:05;3.60;;;1.90;;
69551;SDS011;63774;45.292;11.784;2024-03-02T08:38:31;3.70;;;1.70;;
69551;SDS011;63774;45.292;11.784;2024-03-02T08:40:56;3.20;;;1.60;;
69551;SDS011;63774;45.292;11.784;2024-03-02T08:43:22;2.40;;;1.70;;
69551;SDS011;63774;45.292;11.784;2024-03-02T08:45:48;2.20;;;1.50;;
69551;SDS011;63774;45.292;11.784;2024-03-02T08:48:13;5.30;;;1.90;;
69551;SDS011;63774;45.292;11.784;2024-03-02T08:50:39;3.10;;;1.70;;
69551;SDS011;63774;45.292;11.784;2024-03-02T08:53:04;4.40;;;1.80;;
69551;SDS011;63774;45.292;11.784;2024-03-02T08:55:30;4.20;;;1.70;;
69551;SDS011;63774;45.292;11.784;2024-03-02T08:57:55;6.30;;;2.00;;
69551;SDS011;63774;45.292;11.784;2024-03-02T09:00:22;4.20;;;1.90;;
69551;SDS011;63774;45.292;11.784;2024-03-02T09:02:48;2.90;;;2.00;;
69551;SDS011;63774;45.292;11.784;2024-03-02T09:05:14;4.10;;;1.90;;
69551;SDS011;63774;45.292;11.784;2024-03-02T09:07:40;5.60;;;1.80;;
69551;SDS011;63774;45.292;11.784;2024-03-02T09:10:06;5.80;;;2.10;;
69551;SDS011;63774;45.292;11.784;2024-03-02T09:12:32;7.00;;;1.90;;
69551;SDS011;63774;45.292;11.784;2024-03-02T09:14:58;4.60;;;2.10;;
69551;SDS011;63774;45.292;11.784;2024-03-02T09:17:25;3.70;;;1.70;;
69551;SDS011;63774;45.292;11.784;2024-03-02T09:19:50;3.60;;;1.80;;
69551;SDS011;63774;45.292;11.784;2024-03-02T09:22:19;5.10;;;1.80;;
69551;SDS011;63774;45.292;11.784;2024-03-02T09:24:44;3.30;;;1.80;;
69551;SDS011;63774;45.292;11.784;2024-03-02T09:27:10;5.10;;;1.60;;
69551;SDS011;63774;45.292;11.784;2024-03-02T09:29:36;4.50;;;1.50;;
69551;SDS011;63774;45.292;11.784;2024-03-02T09:32:02;4.20;;;2.00;;
69551;SDS011;63774;45.292;11.784;2024-03-02T09:34:27;4.10;;;1.70;;
69551;SDS011;63774;45.292;11.784;2024-03-02T09:36:53;3.60;;;1.90;;
69551;SDS011;63774;45.292;11.784;2024-03-02T09:39:18;2.30;;;1.50;;
69551;SDS011;63774;45.292;11.784;2024-03-02T09:41:44;3.20;;;1.70;;
69551;SDS011;63774;45.292;11.784;2024-03-02T09:44:09;3.80;;;1.90;;
69551;SDS011;63774;45.292;11.784;2024-03-02T09:46:35;4.90;;;1.70;;
69551;SDS011;63774;45.292;11.784;2024-03-02T09:49:02;3.20;;;1.70;;
69551;SDS011;63774;45.292;11.784;2024-03-02T09:51:27;4.40;;;1.80;;
69551;SDS011;63774;45.292;11.784;2024-03-02T09:53:54;3.30;;;1.90;;
69551;SDS011;63774;45.292;11.784;2024-03-02T09:56:21;3.30;;;1.70;;
69551;SDS011;63774;45.292;11.784;2024-03-02T09:58:47;2.70;;;1.70;;
69551;SDS011;63774;45.292;11.784;2024-03-02T10:01:12;3.50;;;1.50;;
69551;SDS011;63774;45.292;11.784;2024-03-02T10:03:38;3.90;;;1.60;;
69551;SDS011;63774;45.292;11.784;2024-03-02T10:08:45;4.70;;;1.80;;
69551;SDS011;63774;45.292;11.784;2024-03-02T10:11:13;4.00;;;1.90;;
69551;SDS011;63774;45.292;11.784;2024-03-02T10:13:58;2.60;;;1.50;;
69551;SDS011;63774;45.292;11.784;2024-03-02T10:16:30;3.10;;;1.60;;
69551;SDS011;63774;45.292;11.784;2024-03-02T10:18:55;4.30;;;1.70;;
69551;SDS011;63774;45.292;11.784;2024-03-02T10:21:21;2.70;;;1.60;;
69551;SDS011;63774;45.292;11.784;2024-03-02T10:23:49;2.50;;;1.50;;
69551;SDS011;63774;45.292;11.784;2024-03-02T10:26:18;4.30;;;1.70;;
69551;SDS011;63774;45.292;11.784;2024-03-02T10:28:47;5.00;;;1.60;;
69551;SDS011;63774;45.292;11.784;2024-03-02T10:31:12;3.80;;;1.60;;
69551;SDS011;63774;45.292;11.784;2024-03-02T10:33:39;3.70;;;1.80;;
69551;SDS011;63774;45.292;11.784;2024-03-02T10:36:05;3.40;;;1.80;;
69551;SDS011;63774;45.292;11.784;2024-03-02T10:38:30;5.60;;;1.90;;
69551;SDS011;63774;45.292;11.784;2024-03-02T10:40:56;3.60;;;1.70;;
69551;SDS011;63774;45.292;11.784;2024-03-02T10:43:24;4.50;;;1.70;;
69551;SDS011;63774;45.292;11.784;2024-03-02T10:45:51;2.80;;;1.50;;
69551;SDS011;63774;45.292;11.784;2024-03-02T10:48:18;4.50;;;1.60;;
69551;SDS011;63774;45.292;11.784;2024-03-02T10:50:46;3.40;;;1.70;;
69551;SDS011;63774;45.292;11.784;2024-03-02T10:53:11;4.00;;;1.70;;
69551;SDS011;63774;45.292;11.784;2024-03-02T10:55:37;3.10;;;1.80;;
69551;SDS011;63774;45.292;11.784;2024-03-02T10:58:04;2.40;;;1.30;;
69551;SDS011;63774;45.292;11.784;2024-03-02T11:00:33;3.60;;;1.70;;
69551;SDS011;63774;45.292;11.784;2024-03-02T11:03:08;3.20;;;1.50;;
69551;SDS011;63774;45.292;11.784;2024-03-02T11:05:36;3.20;;;1.70;;
69551;SDS011;63774;45.292;11.784;2024-03-02T11:08:07;3.20;;;1.40;;
69551;SDS011;63774;45.292;11.784;2024-03-02T11:10:40;2.30;;;1.50;;
69551;SDS011;63774;45.292;11.784;2024-03-02T11:13:11;3.90;;;1.90;;
69551;SDS011;63774;45.292;11.784;2024-03-02T11:15:38;5.40;;;1.80;;
69551;SDS011;63774;45.292;11.784;2024-03-02T11:18:07;3.00;;;1.40;;
69551;SDS011;63774;45.292;11.784;2024-03-02T11:20:37;3.20;;;1.40;;
69551;SDS011;63774;45.292;11.784;2024-03-02T11:23:07;3.40;;;1.70;;
69551;SDS011;63774;45.292;11.784;2024-03-02T11:25:34;4.40;;;1.70;;
69551;SDS011;63774;45.292;11.784;2024-03-02T11:28:04;2.30;;;1.60;;
69551;SDS011;63774;45.292;11.784;2024-03-02T11:35:41;4.10;;;1.60;;
69551;SDS011;63774;45.292;11.784;2024-03-02T11:38:13;3.70;;;1.70;;
69551;SDS011;63774;45.292;11.784;2024-03-02T11:40:39;3.00;;;1.50;;
69551;SDS011;63774;45.292;11.784;2024-03-02T11:43:06;3.00;;;1.40;;
69551;SDS011;63774;45.292;11.784;2024-03-02T11:45:33;2.10;;;1.40;;
69551;SDS011;63774;45.292;11.784;2024-03-02T11:47:59;2.70;;;1.60;;
69551;SDS011;63774;45.292;11.784;2024-03-02T11:50:35;3.20;;;1.60;;
69551;SDS011;63774;45.292;11.784;2024-03-02T11:53:05;2.70;;;1.30;;
69551;SDS011;63774;45.292;11.784;2024-03-02T11:55:33;1.80;;;1.30;;
69551;SDS011;63774;45.292;11.784;2024-03-02T11:58:01;2.70;;;1.30;;
69551;SDS011;63774;45.292;11.784;2024-03-02T12:00:28;2.30;;;1.30;;
69551;SDS011;63774;45.292;11.784;2024-03-02T12:05:27;3.10;;;1.30;;
69551;SDS011;63774;45.292;11.784;2024-03-02T12:07:57;3.70;;;1.40;;
69551;SDS011;63774;45.292;11.784;2024-03-02T12:10:23;2.20;;;1.30;;
69551;SDS011;63774;45.292;11.784;2024-03-02T12:12:56;3.80;;;1.60;;
69551;SDS011;63774;45.292;11.784;2024-03-02T12:15:29;2.60;;;1.40;;
69551;SDS011;63774;45.292;11.784;2024-03-02T12:17:56;4.00;;;1.30;;
69551;SDS011;63774;45.292;11.784;2024-03-02T12:20:23;3.40;;;1.40;;
69551;SDS011;63774;45.292;11.784;2024-03-02T12:22:53;4.20;;;1.50;;
69551;SDS011;63774;45.292;11.784;2024-03-02T12:25:19;2.70;;;1.30;;
69551;SDS011;63774;45.292;11.784;2024-03-02T12:27:46;2.40;;;1.20;;
69551;SDS011;63774;45.292;11.784;2024-03-02T12:30:13;2.80;;;1.40;;
69551;SDS011;63774;45.292;11.784;2024-03-02T12:32:39;2.80;;;1.50;;
69551;SDS011;63774;45.292;11.784;2024-03-02T12:35:06;4.10;;;1.30;;
69551;SDS011;63774;45.292;11.784;2024-03-02T12:37:31;2.90;;;1.30;;
69551;SDS011;63774;45.292;11.784;2024-03-02T12:39:57;1.90;;;1.00;;
69551;SDS011;63774;45.292;11.784;2024-03-02T12:42:23;2.30;;;1.30;;
69551;SDS011;63774;45.292;11.784;2024-03-02T12:44:51;2.20;;;1.20;;
69551;SDS011;63774;45.292;11.784;2024-03-02T12:47:19;2.20;;;1.30;;
69551;SDS011;63774;45.292;11.784;2024-03-02T12:49:45;3.10;;;1.30;;
69551;SDS011;63774;45.292;11.784;2024-03-02T12:52:14;2.80;;;1.60;;
69551;SDS011;63774;45.292;11.784;2024-03-02T12:54:39;2.10;;;1.20;;
69551;SDS011;63774;45.292;11.784;2024-03-02T12:57:05;2.30;;;1.10;;
69551;SDS011;63774;45.292;11.784;2024-03-02T12:59:30;2.70;;;1.30;;
69551;SDS011;63774;45.292;11.784;2024-03-02T13:01:56;3.40;;;1.50;;
69551;SDS011;63774;45.292;11.784;2024-03-02T13:04:26;2.50;;;1.00;;
69551;SDS011;63774;45.292;11.784;2024-03-02T13:06:54;2.60;;;1.30;;
69551;SDS011;63774;45.292;11.784;2024-03-02T13:09:22;2.60;;;1.20;;
69551;SDS011;63774;45.292;11.784;2024-03-02T13:11:48;3.00;;;1.30;;
69551;SDS011;63774;45.292;11.784;2024-03-02T13:14:14;2.80;;;1.30;;
69551;SDS011;63774;45.292;11.784;2024-03-02T13:16:40;3.20;;;1.40;;
69551;SDS011;63774;45.292;11.784;2024-03-02T13:19:10;2.50;;;1.40;;
69551;SDS011;63774;45.292;11.784;2024-03-02T13:21:37;2.40;;;1.20;;
69551;SDS011;63774;45.292;11.784;2024-03-02T13:24:03;2.90;;;1.40;;
69551;SDS011;63774;45.292;11.784;2024-03-02T13:26:30;2.00;;;1.30;;
69551;SDS011;63774;45.292;11.784;2024-03-02T13:28:55;3.00;;;1.20;;
69551;SDS011;63774;45.292;11.784;2024-03-02T13:31:21;3.20;;;1.40;;
69551;SDS011;63774;45.292;11.784;2024-03-02T13:33:47;2.20;;;1.20;;
69551;SDS011;63774;45.292;11.784;2024-03-02T13:36:12;3.30;;;1.10;;
69551;SDS011;63774;45.292;11.784;2024-03-02T13:38:38;1.80;;;1.20;;
69551;SDS011;63774;45.292;11.784;2024-03-02T13:41:03;2.60;;;1.20;;
69551;SDS011;63774;45.292;11.784;2024-03-02T13:43:29;2.80;;;1.20;;
69551;SDS011;63774;45.292;11.784;2024-03-02T13:45:59;2.40;;;1.30;;
69551;SDS011;63774;45.292;11.784;2024-03-02T13:48:25;2.90;;;1.30;;
69551;SDS011;63774;45.292;11.784;2024-03-02T13:50:51;2.10;;;1.20;;
69551;SDS011;63774;45.292;11.784;2024-03-02T13:53:20;2.70;;;1.20;;
69551;SDS011;63774;45.292;11.784;2024-03-02T13:55:45;2.20;;;1.10;;
69551;SDS011;63774;45.292;11.784;2024-03-02T13:58:11;2.10;;;1.30;;
69551;SDS011;63774;45.292;11.784;2024-03-02T14:00:37;2.20;;;1.20;;
69551;SDS011;63774;45.292;11.784;2024-03-02T14:03:04;2.40;;;1.50;;
69551;SDS011;63774;45.292;11.784;2024-03-02T14:05:31;2.00;;;1.30;;
69551;SDS011;63774;45.292;11.784;2024-03-02T14:07:57;1.30;;;1.00;;
69551;SDS011;63774;45.292;11.784;2024-03-02T14:10:23;2.50;;;1.30;;
69551;SDS011;63774;45.292;11.784;2024-03-02T14:12:49;2.40;;;1.20;;
69551;SDS011;63774;45.292;11.784;2024-03-02T14:15:14;1.80;;;1.10;;
69551;SDS011;63774;45.292;11.784;2024-03-02T14:17:40;1.80;;;1.20;;
69551;SDS011;63774;45.292;11.784;2024-03-02T14:20:06;1.90;;;1.30;;
69551;SDS011;63774;45.292;11.784;2024-03-02T14:22:32;3.50;;;1.40;;
69551;SDS011;63774;45.292;11.784;2024-03-02T14:24:59;1.90;;;1.20;;
69551;SDS011;63774;45.292;11.784;2024-03-02T14:27:24;2.10;;;1.20;;
69551;SDS011;63774;45.292;11.784;2024-03-02T14:29:50;3.30;;;1.40;;
69551;SDS011;63774;45.292;11.784;2024-03-02T14:32:16;2.20;;;1.30;;
69551;SDS011;63774;45.292;11.784;2024-03-02T14:34:41;2.20;;;1.10;;
69551;SDS011;63774;45.292;11.784;2024-03-02T14:37:07;1.80;;;1.10;;
69551;SDS011;63774;45.292;11.784;2024-03-02T14:39:32;2.00;;;1.20;;
69551;SDS011;63774;45.292;11.784;2024-03-02T14:42:00;4.10;;;1.30;;
69551;SDS011;63774;45.292;11.784;2024-03-02T14:44:26;2.60;;;1.20;;
69551;SDS011;63774;45.292;11.784;2024-03-02T14:46:52;2.00;;;1.20;;